createdAt,value
2022-09-04T00:01:45.304Z,101162.50
2022-09-04T00:04:39.104Z,101169.59
2022-09-04T00:07:18.401Z,101174.16
2022-09-04T00:10:23.152Z,101169.44
2022-09-04T00:13:08.903Z,101173.16
2022-09-04T00:15:56.495Z,101171.28
2022-09-04T00:18:55.876Z,101168.56
2022-09-04T00:21:32.034Z,101172.16
2022-09-04T00:24:02.495Z,101159.47
2022-09-04T00:26:42.334Z,101165.88
2022-09-04T00:29:26.175Z,101170.28
2022-09-04T00:32:19.037Z,101174.69
2022-09-04T00:35:09.543Z,101169.28
2022-09-04T00:37:48.383Z,101166.56
2022-09-04T00:40:40.750Z,101157.75
2022-09-04T00:43:26.371Z,101161.31
2022-09-04T00:46:30.176Z,101163.00
2022-09-04T00:49:03.455Z,101166.56
2022-09-04T00:51:30.937Z,101161.16
2022-09-04T00:54:27.312Z,101158.44
2022-09-04T00:57:44.484Z,101156.75
2022-09-04T01:00:20.403Z,101146.75
2022-09-04T01:03:03.932Z,101147.59
2022-09-04T01:06:16.146Z,101150.31
2022-09-04T01:08:56.146Z,101153.03
2022-09-04T01:11:29.623Z,101152.19
2022-09-04T01:14:18.285Z,101156.56
2022-09-04T01:17:06.360Z,101158.44
2022-09-04T01:19:57.626Z,101163.84
2022-09-04T01:22:32.787Z,101166.56
2022-09-04T01:25:18.323Z,101180.97
2022-09-04T01:28:26.912Z,101180.13
2022-09-04T01:31:16.702Z,101186.38
2022-09-04T01:34:03.033Z,101190.09
2022-09-04T01:36:55.180Z,101193.66
2022-09-04T01:39:26.020Z,101195.34
2022-09-04T01:42:08.944Z,101197.22
2022-09-04T01:44:37.081Z,101206.19
2022-09-04T01:47:35.678Z,101207.22
2022-09-04T01:50:11.026Z,101201.78
2022-09-04T01:52:59.050Z,101201.78
2022-09-04T01:55:32.023Z,101198.06
2022-09-04T01:58:09.384Z,101191.81
2022-09-04T02:01:00.599Z,101190.09
2022-09-04T02:03:47.990Z,101186.38
2022-09-04T02:06:27.830Z,101195.53
2022-09-04T02:09:18.121Z,101190.94
2022-09-04T02:11:55.350Z,101197.22
2022-09-04T02:14:34.057Z,101191.81
2022-09-04T02:17:11.101Z,101196.38
2022-09-04T02:19:44.537Z,101196.38
2022-09-04T02:22:27.365Z,101201.78
2022-09-04T02:25:11.023Z,101202.63
2022-09-04T02:27:56.295Z,101184.69
2022-09-04T02:30:24.160Z,101176.56
2022-09-04T02:32:54.313Z,101185.53
2022-09-04T02:35:48.903Z,101177.41
2022-09-04T02:38:16.169Z,101170.97
2022-09-04T02:40:43.382Z,101176.56
2022-09-04T02:43:19.635Z,101185.53
2022-09-04T02:46:05.746Z,101174.69
2022-09-04T02:49:08.312Z,101174.69
2022-09-04T02:51:41.426Z,101170.13
2022-09-04T02:54:25.797Z,101167.59
2022-09-04T02:57:38.322Z,101170.28
2022-09-04T03:00:20.966Z,101165.72
2022-09-04T03:03:17.093Z,101169.28
2022-09-04T03:05:59.160Z,101166.56
2022-09-04T03:08:36.941Z,101172.00
2022-09-04T03:11:36.705Z,101178.44
2022-09-04T03:14:15.864Z,101183.00
2022-09-04T03:16:59.738Z,101195.53
2022-09-04T03:19:42.313Z,101197.41
2022-09-04T03:22:27.627Z,101197.41
2022-09-04T03:25:26.592Z,101200.94
2022-09-04T03:27:53.859Z,101200.94
2022-09-04T03:30:21.282Z,101212.94
2022-09-04T03:33:02.884Z,101199.88
2022-09-04T03:35:49.796Z,101204.78
2022-09-04T03:38:26.091Z,101216.47
2022-09-04T03:41:26.206Z,101226.44
2022-09-04T03:44:12.564Z,101220.19
2022-09-04T03:46:53.163Z,101217.41
2022-09-04T03:49:59.169Z,101218.97
2022-09-04T03:52:54.101Z,101222.03
2022-09-04T03:55:45.000Z,101223.50
2022-09-04T03:58:15.159Z,101222.81
2022-09-04T04:01:24.164Z,101217.53
2022-09-04T04:04:15.798Z,101221.09
2022-09-04T04:06:46.111Z,101230.06
2022-09-04T04:09:16.163Z,101233.47
2022-09-04T04:11:53.350Z,101235.34
2022-09-04T04:14:38.407Z,101239.91
2022-09-04T04:17:31.911Z,101244.47
2022-09-04T04:20:25.702Z,101244.31
2022-09-04T04:23:11.053Z,101244.16
2022-09-04T04:25:52.656Z,101242.16
2022-09-04T04:28:32.281Z,101248.09
2022-09-04T04:31:34.716Z,101254.19
2022-09-04T04:34:21.567Z,101254.06
2022-09-04T04:37:38.968Z,101257.44
2022-09-04T04:40:20.870Z,101266.28
2022-09-04T04:43:14.908Z,101265.25
2022-09-04T04:46:00.804Z,101260.50
2022-09-04T04:48:49.552Z,101262.22
2022-09-04T04:51:32.691Z,101260.38
2022-09-04T04:54:18.071Z,101263.75
2022-09-04T04:56:57.661Z,101264.59
2022-09-04T05:00:06.669Z,101275.44
2022-09-04T05:03:09.434Z,101273.59
2022-09-04T05:05:56.010Z,101279.88
2022-09-04T05:08:50.947Z,101286.13
2022-09-04T05:11:30.049Z,101297.81
2022-09-04T05:14:28.062Z,101292.41
2022-09-04T05:17:40.783Z,101287.81
2022-09-04T05:20:14.311Z,101299.50
2022-09-04T05:22:44.303Z,101290.53
2022-09-04T05:25:36.457Z,101304.94
2022-09-04T05:28:09.817Z,101301.19
2022-09-04T05:30:56.074Z,101302.06
2022-09-04T05:33:55.204Z,101290.38
2022-09-04T05:36:37.577Z,101286.66
2022-09-04T05:39:30.401Z,101283.13
2022-09-04T05:42:16.272Z,101282.09
2022-09-04T05:44:56.577Z,101288.53
2022-09-04T05:47:44.765Z,101287.66
2022-09-04T05:50:44.796Z,101281.25
2022-09-04T05:53:21.074Z,101275.84
2022-09-04T05:56:13.418Z,101284.81
2022-09-04T05:58:46.502Z,101287.53
2022-09-04T06:01:31.921Z,101285.66
2022-09-04T06:04:20.170Z,101288.38
2022-09-04T06:07:02.921Z,101299.19
2022-09-04T06:09:51.900Z,101304.63
2022-09-04T06:12:36.679Z,101306.31
2022-09-04T06:15:24.488Z,101309.88
2022-09-04T06:18:36.186Z,101308.00
2022-09-04T06:21:03.390Z,101311.72
2022-09-04T06:23:51.816Z,101308.00
2022-09-04T06:26:24.857Z,101318.84
2022-09-04T06:29:05.281Z,101313.41
2022-09-04T06:31:44.317Z,101314.31
2022-09-04T06:34:51.369Z,101315.16
2022-09-04T06:37:34.645Z,101319.59
2022-09-04T06:40:37.606Z,101325.00
2022-09-04T06:43:29.751Z,101333.13
2022-09-04T06:46:19.992Z,101332.09
2022-09-04T06:48:53.695Z,101344.81
2022-09-04T06:51:27.233Z,101344.81
2022-09-04T06:53:57.213Z,101343.97
2022-09-04T06:56:36.498Z,101334.81
2022-09-04T06:59:09.623Z,101342.94
2022-09-04T07:02:00.504Z,101341.09
2022-09-04T07:04:46.391Z,101357.34
2022-09-04T07:07:39.865Z,101366.31
2022-09-04T07:10:25.578Z,101374.44
2022-09-04T07:12:58.766Z,101379.84
2022-09-04T07:15:44.760Z,101367.19
2022-09-04T07:18:38.414Z,101381.59
2022-09-04T07:21:24.375Z,101391.56
2022-09-04T07:24:07.967Z,101395.13
2022-09-04T07:27:17.001Z,101391.56
2022-09-04T07:30:04.583Z,101388.69
2022-09-04T07:32:52.295Z,101386.00
2022-09-04T07:35:42.075Z,101396.66
2022-09-04T07:38:34.358Z,101393.09
2022-09-04T07:41:15.310Z,101399.38
2022-09-04T07:44:05.385Z,101401.22
2022-09-04T07:46:46.958Z,101401.94
2022-09-04T07:49:36.474Z,101405.63
2022-09-04T07:52:26.196Z,101404.66
2022-09-04T07:55:10.904Z,101400.94
2022-09-04T07:57:38.128Z,101398.22
2022-09-04T08:00:22.828Z,101395.50
2022-09-04T08:03:13.558Z,101393.66
2022-09-04T08:06:04.496Z,101397.19
2022-09-04T08:09:09.223Z,101416.88
2022-09-04T08:12:15.035Z,101409.72
2022-09-04T08:14:55.633Z,101408.75
2022-09-04T08:17:37.168Z,101424.16
2022-09-04T08:20:23.046Z,101425.00
2022-09-04T08:23:05.646Z,101436.53
2022-09-04T08:26:14.143Z,101433.97
2022-09-04T08:28:57.177Z,101433.97
2022-09-04T08:31:50.784Z,101429.41
2022-09-04T08:34:43.653Z,101432.97
2022-09-04T08:37:34.091Z,101436.53
2022-09-04T08:40:11.456Z,101434.66
2022-09-04T08:42:57.460Z,101437.38
2022-09-04T08:45:58.561Z,101432.78
2022-09-04T08:48:44.405Z,101435.50
2022-09-04T08:51:40.126Z,101429.25
2022-09-04T08:54:26.169Z,101436.38
2022-09-04T08:57:05.841Z,101428.25
2022-09-04T09:00:02.472Z,101422.84
2022-09-04T09:02:38.828Z,101427.25
2022-09-04T09:05:10.124Z,101419.13
2022-09-04T09:07:58.015Z,101419.97
2022-09-04T09:10:27.942Z,101416.22
2022-09-04T09:13:16.754Z,101419.97
2022-09-04T09:16:25.980Z,101419.97
2022-09-04T09:19:10.249Z,101429.66
2022-09-04T09:21:45.530Z,101416.09
2022-09-04T09:24:46.431Z,101423.34
2022-09-04T09:27:33.618Z,101419.78
2022-09-04T09:30:06.210Z,101428.78
2022-09-04T09:33:00.633Z,101428.78
2022-09-04T09:36:14.851Z,101426.94
2022-09-04T09:39:01.011Z,101430.50
2022-09-04T09:41:53.437Z,101434.91
2022-09-04T09:44:45.570Z,101431.34
2022-09-04T09:47:42.774Z,101426.78
2022-09-04T09:50:47.485Z,101421.34
2022-09-04T09:53:47.453Z,101416.94
2022-09-04T09:56:53.746Z,101407.78
2022-09-04T09:59:39.632Z,101405.09
2022-09-04T10:02:45.179Z,101412.19
2022-09-04T10:05:44.914Z,101405.94
2022-09-04T10:08:19.213Z,101408.66
2022-09-04T10:11:42.205Z,101401.34
2022-09-04T10:14:09.416Z,101398.66
2022-09-04T10:17:14.315Z,101393.22
2022-09-04T10:20:15.511Z,101397.63
2022-09-04T10:23:05.664Z,101407.63
2022-09-04T10:26:02.854Z,101395.94
2022-09-04T10:28:52.426Z,101400.34
2022-09-04T10:31:51.462Z,101403.06
2022-09-04T10:34:56.842Z,101404.78
2022-09-04T10:38:00.854Z,101404.78
2022-09-04T10:40:50.662Z,101404.78
2022-09-04T10:43:36.949Z,101402.06
2022-09-04T10:46:30.147Z,101395.81
2022-09-04T10:49:09.181Z,101396.66
2022-09-04T10:51:39.520Z,101389.38
2022-09-04T10:54:28.552Z,101392.06
2022-09-04T10:57:22.941Z,101401.06
2022-09-04T10:59:59.109Z,101392.06
2022-09-04T11:03:03.460Z,101392.91
2022-09-04T11:05:35.025Z,101384.78
2022-09-04T11:08:09.323Z,101384.78
2022-09-04T11:11:05.639Z,101386.47
2022-09-04T11:14:09.401Z,101384.78
2022-09-04T11:16:50.935Z,101381.06
2022-09-04T11:19:21.012Z,101385.63
2022-09-04T11:22:25.812Z,101391.91
2022-09-04T11:25:20.684Z,101389.19
2022-09-04T11:27:51.950Z,101381.06
2022-09-04T11:30:20.586Z,101385.63
2022-09-04T11:33:06.698Z,101385.47
2022-09-04T11:36:02.786Z,101382.75
2022-09-04T11:38:43.753Z,101382.75
2022-09-04T11:41:49.206Z,101377.34
2022-09-04T11:44:46.322Z,101380.94
2022-09-04T11:47:25.415Z,101370.09
2022-09-04T11:50:16.449Z,101376.34
2022-09-04T11:52:52.933Z,101372.78
2022-09-04T11:55:41.522Z,101370.09
2022-09-04T11:58:30.600Z,101372.78
2022-09-04T12:01:27.977Z,101372.78
2022-09-04T12:04:23.980Z,101370.09
2022-09-04T12:07:13.461Z,101373.66
2022-09-04T12:09:59.056Z,101368.22
2022-09-04T12:12:41.780Z,101362.81
2022-09-04T12:15:27.717Z,101361.06
2022-09-04T12:18:12.342Z,101361.06
2022-09-04T12:20:57.845Z,101358.22
2022-09-04T12:23:27.789Z,101355.50
2022-09-04T12:26:11.540Z,101357.38
2022-09-04T12:28:47.623Z,101354.66
2022-09-04T12:31:33.308Z,101361.94
2022-09-04T12:34:19.352Z,101350.22
2022-09-04T12:36:59.981Z,101354.66
2022-09-04T12:39:49.175Z,101352.81
2022-09-04T12:42:41.224Z,101347.38
2022-09-04T12:45:11.411Z,101349.25
2022-09-04T12:48:01.052Z,101341.13
2022-09-04T12:51:01.506Z,101352.81
2022-09-04T12:53:52.425Z,101350.94
2022-09-04T12:56:42.252Z,101350.94
2022-09-04T12:59:22.308Z,101353.66
2022-09-04T13:02:13.864Z,101347.38
2022-09-04T13:04:44.169Z,101347.38
2022-09-04T13:07:34.413Z,101345.53
2022-09-04T13:10:07.655Z,101344.50
2022-09-04T13:12:58.966Z,101345.53
2022-09-04T13:15:50.184Z,101342.81
2022-09-04T13:18:31.645Z,101346.19
2022-09-04T13:21:32.945Z,101351.63
2022-09-04T13:24:44.584Z,101346.38
2022-09-04T13:27:30.372Z,101351.63
2022-09-04T13:30:24.563Z,101349.91
2022-09-04T13:33:19.256Z,101349.06
2022-09-04T13:36:16.610Z,101347.22
2022-09-04T13:39:02.639Z,101333.66
2022-09-04T13:41:51.853Z,101349.91
2022-09-04T13:45:05.734Z,101349.06
2022-09-04T13:48:20.110Z,101337.22
2022-09-04T13:51:02.035Z,101346.19
2022-09-04T13:53:51.958Z,101336.38
2022-09-04T13:56:28.356Z,101335.34
2022-09-04T13:59:08.564Z,101337.22
2022-09-04T14:01:47.024Z,101335.34
2022-09-04T14:04:26.705Z,101340.78
2022-09-04T14:07:05.563Z,101336.38
2022-09-04T14:09:39.848Z,101337.22
2022-09-04T14:12:32.167Z,101339.09
2022-09-04T14:15:20.459Z,101342.63
2022-09-04T14:18:16.376Z,101336.22
2022-09-04T14:20:52.419Z,101350.63
2022-09-04T14:23:25.737Z,101347.91
2022-09-04T14:26:13.350Z,101347.06
2022-09-04T14:29:04.481Z,101346.06
2022-09-04T14:31:46.728Z,101344.38
2022-09-04T14:34:46.811Z,101347.91
2022-09-04T14:37:24.454Z,101348.75
2022-09-04T14:40:14.874Z,101347.91
2022-09-04T14:42:44.885Z,101341.66
2022-09-04T14:45:38.208Z,101342.50
2022-09-04T14:48:12.064Z,101344.19
2022-09-04T14:50:51.957Z,101347.75
2022-09-04T14:53:34.944Z,101338.78
2022-09-04T14:56:08.101Z,101338.78
2022-09-04T14:58:41.924Z,101343.34
2022-09-04T15:01:19.018Z,101340.63
2022-09-04T15:03:49.225Z,101337.91
2022-09-04T15:06:25.238Z,101338.78
2022-09-04T15:08:54.164Z,101341.47
2022-09-04T15:11:31.189Z,101346.91
2022-09-04T15:14:07.953Z,101355.88
2022-09-04T15:16:38.389Z,101346.91
2022-09-04T15:19:46.868Z,101352.31
2022-09-04T15:22:21.704Z,101351.31
2022-09-04T15:25:05.905Z,101351.31
2022-09-04T15:28:04.537Z,101353.16
2022-09-04T15:30:41.573Z,101348.59
2022-09-04T15:33:18.728Z,101362.16
2022-09-04T15:36:04.561Z,101358.59
2022-09-04T15:38:36.682Z,101362.16
2022-09-04T15:41:24.310Z,101363.00
2022-09-04T15:44:00.572Z,101356.72
2022-09-04T15:47:07.221Z,101364.84
2022-09-04T15:49:55.526Z,101363.84
2022-09-04T15:52:46.417Z,101363.00
2022-09-04T15:55:38.249Z,101359.44
2022-09-04T15:58:19.870Z,101347.56
2022-09-04T16:01:06.150Z,101344.03
2022-09-04T16:03:53.110Z,101344.88
2022-09-04T16:06:27.241Z,101338.47
2022-09-04T16:09:11.928Z,101345.75
2022-09-04T16:12:18.132Z,101353.00
2022-09-04T16:15:00.211Z,101340.31
2022-09-04T16:17:31.457Z,101345.88
2022-09-04T16:20:06.418Z,101341.31
2022-09-04T16:23:08.742Z,101349.31
2022-09-04T16:25:43.198Z,101343.03
2022-09-04T16:28:31.411Z,101338.59
2022-09-04T16:31:02.111Z,101339.44
2022-09-04T16:33:50.131Z,101343.88
2022-09-04T16:36:23.022Z,101344.88
2022-09-04T16:39:30.002Z,101337.63
2022-09-04T16:42:20.898Z,101342.16
2022-09-04T16:45:13.664Z,101343.88
2022-09-04T16:47:40.961Z,101343.88
2022-09-04T16:50:30.541Z,101344.88
2022-09-04T16:53:23.412Z,101347.56
2022-09-04T16:56:01.982Z,101333.03
2022-09-04T16:58:39.986Z,101338.47
2022-09-04T17:01:32.197Z,101341.16
2022-09-04T17:04:30.106Z,101338.47
2022-09-04T17:07:34.702Z,101342.00
2022-09-04T17:10:18.754Z,101342.16
2022-09-04T17:12:56.346Z,101344.72
2022-09-04T17:15:53.104Z,101353.69
2022-09-04T17:18:26.546Z,101356.59
2022-09-04T17:27:58.799Z,101349.31
2022-09-04T17:29:04.503Z,101356.41
2022-09-04T17:29:08.242Z,101345.56
2022-09-04T17:30:09.543Z,101355.56
2022-09-04T17:35:18.807Z,101355.56
2022-09-04T17:40:32.674Z,101359.97
2022-09-04T17:40:54.608Z,101355.56
2022-09-04T17:41:57.045Z,101364.53
2022-09-04T17:44:51.082Z,101364.38
2022-09-04T17:47:42.676Z,101368.09
2022-09-04T17:50:16.536Z,101364.53
2022-09-04T17:53:12.060Z,101372.69
2022-09-04T17:55:56.243Z,101376.22
2022-09-04T17:58:52.606Z,101378.94
2022-09-04T18:01:33.765Z,101379.78
2022-09-04T18:04:20.761Z,101384.38
2022-09-04T18:07:29.954Z,101393.22
2022-09-04T18:09:59.306Z,101395.06
2022-09-04T18:12:51.767Z,101392.38
2022-09-04T18:15:33.068Z,101395.75
2022-09-04T18:18:11.697Z,101396.78
2022-09-04T18:21:00.398Z,101396.78
2022-09-04T18:23:51.323Z,101412.19
2022-09-04T18:26:39.922Z,101410.31
2022-09-04T18:30:02.078Z,101417.59
2022-09-04T18:37:07.568Z,101428.44
2022-09-04T18:37:26.560Z,101418.59
2022-09-04T18:38:41.554Z,101436.72
2022-09-04T18:47:46.556Z,101428.75
2022-09-04T18:50:22.009Z,101442.16
2022-09-04T18:50:39.229Z,101443.34
2022-09-04T18:51:18.719Z,101446.03
2022-09-04T18:53:50.268Z,101443.34
2022-09-04T18:56:30.468Z,101447.72
2022-09-04T18:59:10.729Z,101454.00
2022-09-04T19:01:43.914Z,101452.13
2022-09-04T19:04:44.827Z,101457.72
2022-09-04T19:07:31.899Z,101457.72
2022-09-04T19:10:17.535Z,101465.88
2022-09-04T19:12:50.600Z,101460.28
2022-09-04T19:15:36.617Z,101465.00
2022-09-04T19:18:16.412Z,101466.53
2022-09-04T19:20:49.883Z,101472.13
2022-09-04T19:23:32.741Z,101467.56
2022-09-04T19:26:08.083Z,101475.88
2022-09-04T19:28:53.090Z,101480.41
2022-09-04T19:31:32.673Z,101485.81
2022-09-04T19:34:17.095Z,101493.09
2022-09-04T19:37:13.526Z,101488.03
2022-09-04T19:45:57.373Z,101494.59
2022-09-04T19:46:11.161Z,101496.47
2022-09-04T19:46:15.051Z,101508.31
2022-09-04T19:52:10.525Z,101507.78
2022-09-04T19:53:31.209Z,101506.38
2022-09-04T19:55:41.697Z,101505.53
2022-09-04T19:58:11.198Z,101510.94
2022-09-04T20:00:58.330Z,101509.56
2022-09-04T20:03:33.981Z,101512.25
2022-09-04T20:06:21.232Z,101506.69
2022-09-04T20:09:08.697Z,101503.66
2022-09-04T20:11:53.794Z,101502.66
2022-09-04T20:14:47.227Z,101499.78
2022-09-04T20:18:04.221Z,101499.63
2022-09-04T20:20:56.285Z,101507.59
2022-09-04T20:23:34.759Z,101510.31
2022-09-04T20:26:07.846Z,101511.16
2022-09-04T20:28:50.122Z,101508.44
2022-09-04T20:31:35.298Z,101509.31
2022-09-04T20:34:33.860Z,101514.88
2022-09-04T20:37:28.355Z,101522.16
2022-09-04T20:40:01.871Z,101519.47
2022-09-04T20:42:38.815Z,101515.91
2022-09-04T20:47:30.664Z,101519.47
2022-09-04T20:52:43.429Z,101522.16
2022-09-04T20:53:04.639Z,101530.44
2022-09-04T20:54:23.318Z,101535.19
2022-09-04T20:59:29.507Z,101540.91
2022-09-04T21:03:08.613Z,101535.63
2022-09-04T21:03:18.901Z,101540.22
2022-09-04T21:06:07.746Z,101550.88
2022-09-04T21:08:38.105Z,101550.88
2022-09-04T21:11:39.446Z,101547.34
2022-09-04T21:14:45.786Z,101548.34
2022-09-04T21:17:35.118Z,101551.06
2022-09-04T21:20:17.987Z,101553.91
2022-09-04T21:23:15.919Z,101560.31
2022-09-04T21:25:48.950Z,101565.19
2022-09-04T21:28:39.001Z,101562.94
2022-09-04T21:31:44.214Z,101567.81
2022-09-04T21:34:56.460Z,101556.97
2022-09-04T21:37:40.102Z,101566.97
2022-09-04T21:40:50.256Z,101570.53
2022-09-04T21:43:54.999Z,101573.97
2022-09-04T21:46:47.034Z,101573.09
2022-09-04T21:49:38.913Z,101574.94
2022-09-04T21:52:11.073Z,101584.94
2022-09-04T21:57:00.048Z,101580.34
2022-09-04T22:02:30.709Z,101582.22
2022-09-04T22:02:41.130Z,101581.38
2022-09-04T22:04:19.064Z,101582.94
2022-09-04T22:08:45.634Z,101576.50
2022-09-04T22:13:30.042Z,101585.47
2022-09-04T22:13:42.965Z,101586.19
2022-09-04T22:16:01.077Z,101591.28
2022-09-04T22:18:43.745Z,101590.31
2022-09-04T22:21:49.891Z,101593.69
2022-09-04T22:24:24.491Z,101604.41
2022-09-04T22:27:17.831Z,101610.69
2022-09-04T22:30:01.735Z,101618.63
2022-09-04T22:33:05.863Z,101615.75
2022-09-04T22:36:01.080Z,101617.50
2022-09-04T22:38:38.780Z,101625.63
2022-09-04T22:41:43.341Z,101628.16
2022-09-04T22:44:32.041Z,101627.31
2022-09-04T22:47:31.301Z,101629.03
2022-09-04T22:50:31.746Z,101628.00
2022-09-04T22:53:32.880Z,101632.59
2022-09-04T22:56:22.747Z,101631.72
2022-09-04T22:59:27.013Z,101636.13
2022-09-04T23:02:13.485Z,101633.44
2022-09-04T23:05:21.713Z,101637.03
2022-09-04T23:13:43.836Z,101646.00
2022-09-04T23:13:59.034Z,101654.13
2022-09-04T23:14:24.234Z,101648.72
2022-09-04T23:17:25.317Z,101646.00
2022-09-04T23:26:31.400Z,101651.41
2022-09-04T23:26:34.275Z,101650.56
2022-09-04T23:26:45.849Z,101659.56
2022-09-04T23:29:21.322Z,101660.41
2022-09-04T23:32:27.496Z,101659.56
2022-09-04T23:35:24.910Z,101662.09
2022-09-04T23:38:29.594Z,101655.81
2022-09-04T23:41:08.965Z,101654.97
2022-09-04T23:43:51.984Z,101658.53
2022-09-04T23:46:25.308Z,101655.81
2022-09-04T23:49:07.710Z,101665.81
2022-09-04T23:51:53.098Z,101659.56
2022-09-04T23:54:41.844Z,101655.81
2022-09-04T23:57:26.505Z,101659.56
